createdAt,value
2023-05-24T00:01:56.948Z,98779.13
2023-05-24T00:04:25.399Z,98783.34
2023-05-24T00:06:54.849Z,98782.47
2023-05-24T00:09:21.690Z,98772.09
2023-05-24T00:11:48.201Z,98777.63
2023-05-24T00:14:14.982Z,98781.97
2023-05-24T00:16:41.630Z,98782.09
2023-05-24T00:19:08.160Z,98781.16
2023-05-24T00:21:36.732Z,98782.28
2023-05-24T00:24:03.342Z,98781.81
2023-05-24T00:26:29.855Z,98786.47
2023-05-24T00:28:56.670Z,98779.50
2023-05-24T00:31:23.284Z,98776.75
2023-05-24T00:33:49.816Z,98771.16
2023-05-24T00:36:16.423Z,98764.97
2023-05-24T00:38:42.944Z,98767.59
2023-05-24T00:41:09.542Z,98758.50
2023-05-24T00:43:37.090Z,98754.44
2023-05-24T00:46:30.196Z,98762.28
2023-05-24T00:48:56.754Z,98751.06
2023-05-24T00:51:23.290Z,98756.22
2023-05-24T00:53:49.900Z,98756.69
2023-05-24T00:56:17.123Z,98751.69
2023-05-24T00:58:43.761Z,98754.41
2023-05-24T01:01:10.346Z,98753.72
2023-05-24T01:03:36.982Z,98749.50
2023-05-24T01:06:04.756Z,98758.16
2023-05-24T01:08:38.951Z,98749.91
2023-05-24T01:11:21.405Z,98746.94
2023-05-24T01:14:21.300Z,98753.91
2023-05-24T01:16:56.461Z,98747.88
2023-05-24T01:19:49.336Z,98746.06
2023-05-24T01:22:43.948Z,98750.13
2023-05-24T01:25:14.569Z,98752.47
2023-05-24T01:27:41.093Z,98745.88
2023-05-24T01:30:08.068Z,98749.75
2023-05-24T01:32:34.853Z,98750.72
2023-05-24T01:35:01.424Z,98748.91
2023-05-24T01:37:27.955Z,98749.41
2023-05-24T01:39:54.563Z,98755.09
2023-05-24T01:42:25.143Z,98753.00
2023-05-24T01:44:56.326Z,98751.16
2023-05-24T01:47:30.627Z,98743.75
2023-05-24T01:50:07.308Z,98747.16
2023-05-24T01:52:34.213Z,98741.00
2023-05-24T01:55:00.786Z,98735.94
2023-05-24T01:57:27.323Z,98741.75
2023-05-24T01:59:54.312Z,98736.63
2023-05-24T02:02:20.963Z,98735.50
2023-05-24T02:04:47.508Z,98734.50
2023-05-24T02:07:14.054Z,98734.84
2023-05-24T02:09:40.588Z,98728.16
2023-05-24T02:12:07.710Z,98730.03
2023-05-24T02:14:34.220Z,98737.75
2023-05-24T02:17:00.893Z,98727.53
2023-05-24T02:19:27.564Z,98730.28
2023-05-24T02:21:54.545Z,98725.94
2023-05-24T02:24:21.073Z,98721.59
2023-05-24T02:26:47.627Z,98722.59
2023-05-24T02:29:14.701Z,98728.03
2023-05-24T02:31:41.258Z,98727.41
2023-05-24T02:34:07.914Z,98733.59
2023-05-24T02:36:36.204Z,98731.16
2023-05-24T02:39:04.092Z,98724.56
2023-05-24T02:41:30.657Z,98737.63
2023-05-24T02:43:57.236Z,98737.13
2023-05-24T02:46:23.833Z,98747.28
2023-05-24T02:48:50.515Z,98737.63
2023-05-24T02:51:20.467Z,98736.31
2023-05-24T02:53:47.786Z,98739.34
2023-05-24T02:56:17.567Z,98732.94
2023-05-24T02:58:45.032Z,98738.81
2023-05-24T03:01:12.442Z,98738.69
2023-05-24T03:03:39.664Z,98743.75
2023-05-24T03:06:07.189Z,98745.72
2023-05-24T03:08:34.519Z,98738.09
2023-05-24T03:11:01.629Z,98738.47
2023-05-24T03:13:28.312Z,98742.25
2023-05-24T03:15:54.889Z,98738.28
2023-05-24T03:18:21.504Z,98738.09
2023-05-24T03:20:48.011Z,98733.59
2023-05-24T03:23:15.110Z,98737.47
2023-05-24T03:25:41.616Z,98736.31
2023-05-24T03:28:08.140Z,98731.44
2023-05-24T03:30:34.696Z,98738.41
2023-05-24T03:33:01.296Z,98744.44
2023-05-24T03:35:28.168Z,98744.19
2023-05-24T03:37:54.717Z,98744.50
2023-05-24T03:40:21.286Z,98742.69
2023-05-24T03:42:47.816Z,98741.66
2023-05-24T03:45:19.359Z,98748.41
2023-05-24T03:47:50.827Z,98748.25
2023-05-24T03:50:17.473Z,98741.63
2023-05-24T03:52:44.397Z,98746.78
2023-05-24T03:55:11.700Z,98746.75
2023-05-24T03:57:38.219Z,98741.56
2023-05-24T04:00:07.215Z,98754.75
2023-05-24T04:02:34.136Z,98747.28
2023-05-24T04:05:00.811Z,98746.34
2023-05-24T04:07:28.210Z,98737.78
2023-05-24T04:09:54.753Z,98740.97
2023-05-24T04:12:21.263Z,98740.66
2023-05-24T04:14:47.833Z,98736.75
2023-05-24T04:17:14.525Z,98737.13
2023-05-24T04:19:41.240Z,98745.09
2023-05-24T04:22:07.774Z,98742.22
2023-05-24T04:24:34.291Z,98741.94
2023-05-24T04:27:00.885Z,98739.59
2023-05-24T04:29:27.728Z,98745.31
2023-05-24T04:31:54.290Z,98742.56
2023-05-24T04:34:22.389Z,98745.81
2023-05-24T04:36:50.564Z,98737.59
2023-05-24T04:39:18.838Z,98739.28
2023-05-24T04:41:45.600Z,98737.03
2023-05-24T04:44:12.112Z,98734.16
2023-05-24T04:46:38.682Z,98735.66
2023-05-24T04:49:05.698Z,98735.66
2023-05-24T04:51:32.863Z,98739.16
2023-05-24T04:54:00.398Z,98739.22
2023-05-24T04:56:27.014Z,98734.38
2023-05-24T04:58:53.534Z,98742.84
2023-05-24T05:01:20.374Z,98742.38
2023-05-24T05:03:47.324Z,98748.19
2023-05-24T05:06:14.119Z,98746.75
2023-05-24T05:08:40.649Z,98745.63
2023-05-24T05:11:07.414Z,98745.47
2023-05-24T05:13:34.180Z,98745.16
2023-05-24T05:16:00.713Z,98751.31
2023-05-24T05:18:27.255Z,98741.53
2023-05-24T05:20:53.793Z,98742.53
2023-05-24T05:23:20.387Z,98743.38
2023-05-24T05:25:46.902Z,98753.59
2023-05-24T05:28:13.555Z,98745.72
2023-05-24T05:30:40.277Z,98747.34
2023-05-24T05:33:07.065Z,98743.91
2023-05-24T05:35:33.632Z,98750.91
2023-05-24T05:38:00.210Z,98745.44
2023-05-24T05:40:26.788Z,98755.91
2023-05-24T05:42:53.349Z,98752.22
2023-05-24T05:45:19.922Z,98746.50
2023-05-24T05:47:46.529Z,98750.28
2023-05-24T05:50:13.140Z,98756.69
2023-05-24T05:52:39.685Z,98758.53
2023-05-24T05:55:06.766Z,98756.16
2023-05-24T05:57:33.318Z,98755.88
2023-05-24T05:59:59.947Z,98752.78
2023-05-24T06:02:26.514Z,98755.94
2023-05-24T06:04:53.136Z,98751.69
2023-05-24T06:07:20.069Z,98750.97
2023-05-24T06:09:46.579Z,98761.72
2023-05-24T06:12:13.147Z,98753.84
2023-05-24T06:14:39.689Z,98758.84
2023-05-24T06:17:06.335Z,98756.22
2023-05-24T06:19:33.108Z,98765.06
2023-05-24T06:21:59.763Z,98772.91
2023-05-24T06:24:28.484Z,98766.06
2023-05-24T06:26:54.987Z,98756.19
2023-05-24T06:29:22.286Z,98759.94
2023-05-24T06:31:49.152Z,98775.56
2023-05-24T06:34:20.982Z,98765.66
2023-05-24T06:36:48.346Z,98771.94
2023-05-24T06:39:15.078Z,98768.38
2023-05-24T06:41:43.137Z,98764.59
2023-05-24T06:44:09.689Z,98768.13
2023-05-24T06:46:36.470Z,98772.03
2023-05-24T06:49:03.496Z,98771.44
2023-05-24T06:51:30.709Z,98775.31
2023-05-24T06:53:57.545Z,98777.69
2023-05-24T06:56:24.041Z,98783.50
2023-05-24T06:58:51.032Z,98797.78
2023-05-24T07:01:18.637Z,98789.16
2023-05-24T07:03:45.226Z,98798.06
2023-05-24T07:06:14.141Z,98791.81
2023-05-24T07:08:41.907Z,98789.72
2023-05-24T07:11:08.871Z,98788.66
2023-05-24T07:13:35.771Z,98787.22
2023-05-24T07:16:02.380Z,98786.66
2023-05-24T07:18:29.137Z,98779.88
2023-05-24T07:20:55.659Z,98770.91
2023-05-24T07:23:22.159Z,98777.44
2023-05-24T07:25:49.412Z,98786.47
2023-05-24T07:28:17.962Z,98799.47
2023-05-24T07:30:44.583Z,98801.19
2023-05-24T07:33:11.378Z,98792.50
2023-05-24T07:35:38.575Z,98790.88
2023-05-24T07:38:05.392Z,98799.00
2023-05-24T07:40:32.160Z,98787.19
2023-05-24T07:42:58.697Z,98799.00
2023-05-24T07:45:25.223Z,98810.66
2023-05-24T07:47:54.389Z,98806.38
2023-05-24T07:50:22.530Z,98800.34
2023-05-24T07:52:50.060Z,98812.09
2023-05-24T07:55:16.642Z,98800.97
2023-05-24T07:57:43.184Z,98803.13
2023-05-24T08:00:14.240Z,98799.56
2023-05-24T08:02:44.303Z,98798.75
2023-05-24T08:05:12.574Z,98799.34
2023-05-24T08:07:40.192Z,98813.94
2023-05-24T08:10:07.542Z,98809.88
2023-05-24T08:12:34.059Z,98812.66
2023-05-24T08:15:00.925Z,98795.75
2023-05-24T08:17:27.610Z,98798.31
2023-05-24T08:19:54.292Z,98802.56
2023-05-24T08:22:21.030Z,98805.69
2023-05-24T08:24:47.586Z,98796.97
2023-05-24T08:27:14.735Z,98799.13
2023-05-24T08:29:41.543Z,98790.88
2023-05-24T08:32:11.311Z,98791.22
2023-05-24T08:34:38.330Z,98795.97
2023-05-24T08:37:05.161Z,98796.03
2023-05-24T08:39:31.656Z,98792.72
2023-05-24T08:42:08.518Z,98802.44
2023-05-24T08:44:42.168Z,98801.78
2023-05-24T08:47:08.667Z,98807.56
2023-05-24T08:49:37.199Z,98812.44
2023-05-24T08:52:04.196Z,98808.50
2023-05-24T08:54:31.280Z,98813.81
2023-05-24T08:56:57.805Z,98823.53
2023-05-24T08:59:25.049Z,98829.50
2023-05-24T09:01:53.607Z,98824.41
2023-05-24T09:04:21.662Z,98832.91
2023-05-24T09:06:48.675Z,98847.28
2023-05-24T09:09:16.922Z,98842.94
2023-05-24T09:11:43.587Z,98846.03
2023-05-24T09:14:10.208Z,98843.91
2023-05-24T09:16:36.831Z,98837.84
2023-05-24T09:19:04.289Z,98841.75
2023-05-24T09:21:30.900Z,98840.06
2023-05-24T09:23:57.685Z,98855.38
2023-05-24T09:26:25.336Z,98854.78
2023-05-24T09:28:54.862Z,98852.47
2023-05-24T09:31:26.102Z,98847.97
2023-05-24T09:33:52.701Z,98849.50
2023-05-24T09:36:19.212Z,98845.09
2023-05-24T09:38:45.719Z,98846.97
2023-05-24T09:41:12.361Z,98856.56
2023-05-24T09:43:48.285Z,98844.16
2023-05-24T09:46:19.576Z,98847.66
2023-05-24T09:48:59.139Z,98841.34
2023-05-24T09:51:26.059Z,98852.19
2023-05-24T09:53:56.550Z,98844.31
2023-05-24T09:56:23.763Z,98850.38
2023-05-24T09:58:50.289Z,98837.91
2023-05-24T10:01:18.803Z,98836.75
2023-05-24T10:03:55.425Z,98833.50
2023-05-24T10:06:22.662Z,98841.41
2023-05-24T10:08:49.331Z,98844.84
2023-05-24T10:11:15.828Z,98839.38
2023-05-24T10:13:42.356Z,98852.97
2023-05-24T10:16:08.894Z,98854.69
2023-05-24T10:18:35.406Z,98859.53
2023-05-24T10:21:02.768Z,98866.97
2023-05-24T10:23:30.106Z,98855.75
2023-05-24T10:26:03.684Z,98869.06
2023-05-24T10:28:30.220Z,98873.19
2023-05-24T10:31:04.762Z,98868.91
2023-05-24T10:33:31.379Z,98875.56
2023-05-24T10:35:58.187Z,98867.66
2023-05-24T10:38:24.998Z,98863.72
2023-05-24T10:40:52.165Z,98868.22
2023-05-24T10:43:18.912Z,98868.16
2023-05-24T10:45:48.719Z,98867.72
2023-05-24T10:48:15.540Z,98869.00
2023-05-24T10:50:42.891Z,98869.25
2023-05-24T10:53:16.877Z,98872.47
2023-05-24T10:55:59.814Z,98870.03
2023-05-24T10:58:32.877Z,98875.59
2023-05-24T11:00:59.378Z,98875.41
2023-05-24T11:03:25.897Z,98879.66
2023-05-24T11:05:54.492Z,98884.72
2023-05-24T11:08:22.947Z,98884.56
2023-05-24T11:10:49.526Z,98880.03
2023-05-24T11:13:16.101Z,98882.53
2023-05-24T11:15:50.856Z,98883.13
2023-05-24T11:18:18.136Z,98881.53
2023-05-24T11:20:48.060Z,98877.16
2023-05-24T11:23:15.420Z,98876.38
2023-05-24T11:25:41.944Z,98883.72
2023-05-24T11:28:10.757Z,98877.16
2023-05-24T11:30:46.912Z,98880.25
2023-05-24T11:33:32.097Z,98882.97
2023-05-24T11:35:59.880Z,98883.44
2023-05-24T11:38:27.492Z,98893.88
2023-05-24T11:40:54.124Z,98894.16
2023-05-24T11:43:21.882Z,98884.38
2023-05-24T11:45:49.469Z,98879.94
2023-05-24T11:48:16.236Z,98889.91
2023-05-24T11:53:13.802Z,98884.13
2023-05-24T11:55:41.348Z,98889.72
2023-05-24T11:58:14.628Z,98885.06
2023-05-24T12:00:43.105Z,98878.63
2023-05-24T12:03:10.423Z,98879.22
2023-05-24T12:05:37.751Z,98874.75
2023-05-24T12:08:09.324Z,98878.50
2023-05-24T12:10:38.045Z,98875.00
2023-05-24T12:13:04.864Z,98871.47
2023-05-24T12:15:31.576Z,98874.28
2023-05-24T12:17:58.404Z,98874.75
2023-05-24T12:20:25.063Z,98880.72
2023-05-24T12:22:52.662Z,98884.31
2023-05-24T12:25:21.285Z,98875.63
2023-05-24T12:27:54.332Z,98881.00
2023-05-24T12:30:25.326Z,98884.72
2023-05-24T12:32:53.829Z,98885.00
2023-05-24T12:35:21.132Z,98881.53
2023-05-24T12:37:48.788Z,98880.66
2023-05-24T12:40:17.780Z,98884.94
2023-05-24T12:42:45.683Z,98882.22
2023-05-24T12:45:12.795Z,98879.41
2023-05-24T12:47:39.393Z,98876.47
2023-05-24T12:50:06.105Z,98883.81
2023-05-24T12:52:32.624Z,98890.59
2023-05-24T12:54:59.184Z,98884.22
2023-05-24T12:57:25.722Z,98885.53
2023-05-24T12:59:52.257Z,98887.84
2023-05-24T13:02:19.947Z,98884.81
2023-05-24T13:04:46.602Z,98878.91
2023-05-24T13:07:13.149Z,98886.66
2023-05-24T13:09:39.663Z,98887.47
2023-05-24T13:12:06.771Z,98876.19
2023-05-24T13:14:36.550Z,98888.22
2023-05-24T13:17:03.195Z,98872.44
2023-05-24T13:19:29.789Z,98881.69
2023-05-24T13:21:56.317Z,98881.78
2023-05-24T13:24:23.286Z,98879.84
2023-05-24T13:26:52.208Z,98871.41
2023-05-24T13:29:34.228Z,98872.00
2023-05-24T13:32:06.312Z,98883.84
2023-05-24T13:34:33.265Z,98867.13
2023-05-24T13:37:00.227Z,98874.53
2023-05-24T13:39:27.870Z,98881.22
2023-05-24T13:41:54.454Z,98878.91
2023-05-24T13:44:21.473Z,98880.06
2023-05-24T13:46:48.043Z,98876.88
2023-05-24T13:49:15.938Z,98881.63
2023-05-24T13:51:42.479Z,98874.56
2023-05-24T13:54:09.084Z,98870.03
2023-05-24T13:56:35.901Z,98870.38
2023-05-24T13:59:03.357Z,98867.53
2023-05-24T14:01:30.538Z,98864.28
2023-05-24T14:03:57.395Z,98861.94
2023-05-24T14:06:23.947Z,98866.81
2023-05-24T14:08:50.642Z,98867.72
2023-05-24T14:11:17.240Z,98863.28
2023-05-24T14:14:39.447Z,98869.66
2023-05-24T14:16:30.477Z,98870.31
2023-05-24T14:18:57.433Z,98866.81
2023-05-24T14:21:25.817Z,98864.72
2023-05-24T14:23:52.353Z,98868.50
2023-05-24T14:26:18.983Z,98873.81
2023-05-24T14:28:45.500Z,98880.06
2023-05-24T14:31:12.034Z,98878.84
2023-05-24T14:33:38.630Z,98883.53
2023-05-24T14:36:05.320Z,98876.19
2023-05-24T14:38:32.029Z,98878.91
2023-05-24T14:40:59.646Z,98882.22
2023-05-24T14:43:26.226Z,98877.69
2023-05-24T14:45:52.783Z,98878.56
2023-05-24T14:48:19.414Z,98884.88
2023-05-24T14:50:46.003Z,98879.03
2023-05-24T14:53:12.866Z,98883.78
2023-05-24T14:55:41.802Z,98879.94
2023-05-24T14:58:12.002Z,98884.75
2023-05-24T15:00:38.991Z,98889.16
2023-05-24T15:03:06.181Z,98882.09
2023-05-24T15:05:33.122Z,98862.59
2023-05-24T15:07:59.668Z,98876.50
2023-05-24T15:10:26.204Z,98880.28
2023-05-24T15:12:52.730Z,98881.44
2023-05-24T15:15:20.175Z,98888.06
2023-05-24T15:17:47.252Z,98892.81
2023-05-24T15:20:13.834Z,98895.44
2023-05-24T15:22:40.464Z,98893.59
2023-05-24T15:25:07.678Z,98891.50
2023-05-24T15:27:34.257Z,98896.47
2023-05-24T15:30:00.820Z,98895.44
2023-05-24T15:32:27.359Z,98898.94
2023-05-24T15:34:53.923Z,98893.91
2023-05-24T15:37:22.341Z,98884.44
2023-05-24T15:39:49.640Z,98878.38
2023-05-24T15:42:16.365Z,98881.00
2023-05-24T15:44:42.901Z,98883.03
2023-05-24T15:47:09.565Z,98885.25
2023-05-24T15:49:36.114Z,98880.66
2023-05-24T15:52:04.759Z,98880.16
2023-05-24T15:54:31.990Z,98874.88
2023-05-24T15:57:00.494Z,98875.91
2023-05-24T15:59:27.338Z,98872.03
2023-05-24T16:01:55.013Z,98872.59
2023-05-24T16:04:21.633Z,98872.53
2023-05-24T16:06:48.191Z,98883.09
2023-05-24T16:09:14.729Z,98885.59
2023-05-24T16:11:41.479Z,98882.69
2023-05-24T16:14:08.487Z,98877.53
2023-05-24T16:16:35.088Z,98892.34
2023-05-24T16:19:01.596Z,98880.03
2023-05-24T16:21:28.847Z,98879.41
2023-05-24T16:23:55.581Z,98895.28
2023-05-24T16:26:22.155Z,98890.91
2023-05-24T16:28:49.425Z,98883.53
2023-05-24T16:31:17.190Z,98884.63
2023-05-24T16:33:44.285Z,98880.19
2023-05-24T16:36:10.841Z,98884.91
2023-05-24T16:38:37.939Z,98880.22
2023-05-24T16:41:06.039Z,98881.41
2023-05-24T16:43:32.949Z,98882.28
2023-05-24T16:46:00.382Z,98880.41
2023-05-24T16:48:28.767Z,98877.03
2023-05-24T16:50:56.688Z,98878.59
2023-05-24T16:53:26.756Z,98877.06
2023-05-24T16:55:54.216Z,98881.56
2023-05-24T16:58:21.392Z,98872.22
2023-05-24T17:00:47.975Z,98879.56
2023-05-24T17:03:14.646Z,98869.34
2023-05-24T17:05:41.184Z,98868.06
2023-05-24T17:08:08.366Z,98870.59
2023-05-24T17:10:34.941Z,98874.91
2023-05-24T17:13:01.460Z,98867.50
2023-05-24T17:15:27.980Z,98875.16
2023-05-24T17:17:55.559Z,98874.25
2023-05-24T17:20:22.117Z,98870.31
2023-05-24T17:22:49.489Z,98882.16
2023-05-24T17:25:16.162Z,98875.63
2023-05-24T17:27:42.729Z,98877.59
2023-05-24T17:30:09.557Z,98869.69
2023-05-24T17:32:36.247Z,98874.19
2023-05-24T17:35:02.819Z,98872.63
2023-05-24T17:37:29.318Z,98871.63
2023-05-24T17:39:55.840Z,98871.06
2023-05-24T17:42:22.416Z,98873.59
2023-05-24T17:44:48.943Z,98877.59
2023-05-24T17:47:15.748Z,98877.53
2023-05-24T17:49:42.250Z,98876.06
2023-05-24T17:52:08.761Z,98871.97
2023-05-24T17:54:35.351Z,98878.25
2023-05-24T17:57:02.921Z,98880.69
2023-05-24T17:59:29.481Z,98881.50
2023-05-24T18:01:56.112Z,98884.25
2023-05-24T18:04:22.658Z,98882.41
2023-05-24T18:06:49.226Z,98888.75
2023-05-24T18:09:16.923Z,98888.34
2023-05-24T18:11:43.468Z,98887.88
2023-05-24T18:14:10.040Z,98883.94
2023-05-24T18:16:36.812Z,98879.66
2023-05-24T18:19:03.349Z,98879.28
2023-05-24T18:21:29.864Z,98891.59
2023-05-24T18:23:56.363Z,98891.06
2023-05-24T18:26:22.933Z,98894.41
2023-05-24T18:28:49.461Z,98894.75
2023-05-24T18:31:16.009Z,98890.69
2023-05-24T18:33:42.625Z,98897.75
2023-05-24T18:36:09.242Z,98904.59
2023-05-24T18:38:36.400Z,98910.34
2023-05-24T18:41:05.709Z,98912.50
2023-05-24T18:43:32.945Z,98901.88
2023-05-24T18:45:59.484Z,98903.97
2023-05-24T18:48:25.993Z,98906.84
2023-05-24T18:50:53.800Z,98915.91
2023-05-24T18:53:21.644Z,98914.78
2023-05-24T18:55:48.173Z,98914.31
2023-05-24T18:58:14.699Z,98913.06
2023-05-24T19:00:41.327Z,98911.09
2023-05-24T19:03:10.873Z,98915.91
2023-05-24T19:05:38.997Z,98916.63
2023-05-24T19:08:07.488Z,98915.94
2023-05-24T19:10:34.038Z,98933.16
2023-05-24T19:13:03.809Z,98929.69
2023-05-24T19:15:30.366Z,98932.91
2023-05-24T19:17:57.917Z,98929.97
2023-05-24T19:20:24.629Z,98928.88
2023-05-24T19:22:51.300Z,98933.03
2023-05-24T19:25:17.827Z,98930.06
2023-05-24T19:27:57.765Z,98939.47
2023-05-24T19:30:25.545Z,98935.31
2023-05-24T19:32:52.181Z,98936.34
2023-05-24T19:35:18.731Z,98942.22
2023-05-24T19:37:45.265Z,98945.22
2023-05-24T19:40:11.870Z,98944.41
2023-05-24T19:42:38.409Z,98946.13
2023-05-24T19:45:05.479Z,98947.78
2023-05-24T19:47:32.367Z,98954.63
2023-05-24T19:49:58.944Z,98955.31
2023-05-24T19:52:25.521Z,98955.44
2023-05-24T19:54:52.064Z,98961.94
2023-05-24T19:57:18.572Z,98964.63
2023-05-24T19:59:45.069Z,98971.47
2023-05-24T20:02:11.578Z,98969.94
2023-05-24T20:04:41.894Z,98974.38
2023-05-24T20:07:08.823Z,98974.34
2023-05-24T20:09:35.358Z,98973.06
2023-05-24T20:12:02.599Z,98978.38
2023-05-24T20:14:31.440Z,98975.25
2023-05-24T20:17:01.477Z,98982.56
2023-05-24T20:19:28.086Z,98990.00
2023-05-24T20:21:54.682Z,98987.94
2023-05-24T20:24:21.224Z,98982.16
2023-05-24T20:26:48.082Z,98985.97
2023-05-24T20:29:15.877Z,98984.69
2023-05-24T20:31:43.445Z,98987.94
2023-05-24T20:34:10.366Z,98989.22
2023-05-24T20:36:36.896Z,98992.72
2023-05-24T20:39:04.120Z,98989.56
2023-05-24T20:41:30.743Z,98984.09
2023-05-24T20:43:57.273Z,98988.66
2023-05-24T20:46:23.958Z,98987.81
2023-05-24T20:48:51.423Z,98994.06
2023-05-24T20:51:19.161Z,98994.28
2023-05-24T20:53:45.968Z,98991.63
2023-05-24T20:56:12.529Z,98987.56
2023-05-24T20:58:41.195Z,98992.31
2023-05-24T21:01:08.645Z,98992.00
2023-05-24T21:03:35.604Z,98997.44
2023-05-24T21:06:02.338Z,98997.28
2023-05-24T21:08:28.866Z,98996.13
2023-05-24T21:10:55.715Z,99006.78
2023-05-24T21:13:22.529Z,99009.59
2023-05-24T21:15:50.515Z,99019.06
2023-05-24T21:18:17.186Z,99008.09
2023-05-24T21:20:43.858Z,99027.91
2023-05-24T21:23:10.891Z,99026.59
2023-05-24T21:25:37.415Z,99037.56
2023-05-24T21:28:03.927Z,99041.44
2023-05-24T21:30:30.647Z,99036.56
2023-05-24T21:32:57.179Z,99040.47
2023-05-24T21:35:23.740Z,99041.63
2023-05-24T21:37:50.260Z,99041.53
2023-05-24T21:40:16.806Z,99057.34
2023-05-24T21:42:44.288Z,99057.16
2023-05-24T21:45:11.112Z,99060.75
2023-05-24T21:47:37.752Z,99059.94
2023-05-24T21:50:05.314Z,99067.94
2023-05-24T21:52:31.830Z,99082.75
2023-05-24T21:54:58.345Z,99086.50
2023-05-24T21:57:26.404Z,99101.00
2023-05-24T21:59:53.167Z,99097.25
2023-05-24T22:02:20.070Z,99097.41
2023-05-24T22:04:46.613Z,99097.75
2023-05-24T22:07:13.891Z,99100.50
2023-05-24T22:09:40.423Z,99100.84
2023-05-24T22:12:07.279Z,99095.97
2023-05-24T22:14:33.799Z,99096.78
2023-05-24T22:17:00.331Z,99098.06
2023-05-24T22:19:40.083Z,99094.31
2023-05-24T22:22:08.202Z,99099.69
2023-05-24T22:24:34.819Z,99096.94
2023-05-24T22:27:02.454Z,99098.91
2023-05-24T22:29:29.044Z,99101.19
2023-05-24T22:31:55.706Z,99101.81
2023-05-24T22:34:28.767Z,99097.41
2023-05-24T22:36:55.574Z,99113.19
2023-05-24T22:39:22.161Z,99121.19
2023-05-24T22:41:48.766Z,99128.50
2023-05-24T22:44:15.722Z,99120.34
2023-05-24T22:46:42.304Z,99118.91
2023-05-24T22:49:12.987Z,99110.44
2023-05-24T22:51:44.366Z,99106.03
2023-05-24T22:54:11.590Z,99109.28
2023-05-24T22:56:38.507Z,99117.22
2023-05-24T22:59:05.424Z,99118.22
2023-05-24T23:01:32.369Z,99123.59
2023-05-24T23:04:11.540Z,99124.25
2023-05-24T23:06:45.994Z,99126.06
2023-05-24T23:09:15.325Z,99119.53
2023-05-24T23:11:42.804Z,99118.53
2023-05-24T23:14:11.729Z,99123.09
2023-05-24T23:16:45.212Z,99128.78
2023-05-24T23:19:13.463Z,99132.03
2023-05-24T23:21:42.124Z,99116.72
2023-05-24T23:24:14.195Z,99132.25
2023-05-24T23:26:41.763Z,99119.19
2023-05-24T23:29:08.670Z,99119.97
2023-05-24T23:31:35.761Z,99113.28
2023-05-24T23:34:02.326Z,99116.72
2023-05-24T23:36:28.859Z,99109.56
2023-05-24T23:38:55.394Z,99110.47
2023-05-24T23:41:21.946Z,99116.50
2023-05-24T23:43:48.552Z,99108.34
2023-05-24T23:46:16.969Z,99109.00
2023-05-24T23:48:43.663Z,99113.88
2023-05-24T23:51:10.537Z,99116.34
2023-05-24T23:53:37.058Z,99119.25
2023-05-24T23:56:03.660Z,99116.50
2023-05-24T23:58:30.173Z,99114.00
